sensor_id;sensor_type;location;lat;lon;timestamp;P1;durP1;ratioP1;P2;durP2;ratioP2
70369;SDS011;57790;51.356;-2.906;2022-08-20T00:02:46;9.65;;;1.60;;
70369;SDS011;57790;51.356;-2.906;2022-08-20T00:05:50;11.97;;;1.30;;
70369;SDS011;57790;51.356;-2.906;2022-08-20T00:08:54;11.40;;;1.55;;
70369;SDS011;57790;51.356;-2.906;2022-08-20T00:11:55;11.20;;;2.03;;
70369;SDS011;57790;51.356;-2.906;2022-08-20T00:14:55;8.87;;;1.40;;
70369;SDS011;57790;51.356;-2.906;2022-08-20T00:17:56;11.07;;;1.60;;
70369;SDS011;57790;51.356;-2.906;2022-08-20T00:20:57;11.93;;;1.27;;
70369;SDS011;57790;51.356;-2.906;2022-08-20T00:23:57;10.77;;;1.23;;
70369;SDS011;57790;51.356;-2.906;2022-08-20T00:26:58;11.70;;;1.60;;
70369;SDS011;57790;51.356;-2.906;2022-08-20T00:29:58;9.47;;;1.10;;
70369;SDS011;57790;51.356;-2.906;2022-08-20T00:33:01;10.47;;;1.20;;
70369;SDS011;57790;51.356;-2.906;2022-08-20T00:36:07;10.32;;;1.30;;
70369;SDS011;57790;51.356;-2.906;2022-08-20T00:39:09;11.40;;;1.25;;
70369;SDS011;57790;51.356;-2.906;2022-08-20T00:42:10;8.87;;;1.43;;
70369;SDS011;57790;51.356;-2.906;2022-08-20T00:45:11;9.83;;;1.13;;
70369;SDS011;57790;51.356;-2.906;2022-08-20T00:48:12;7.30;;;1.30;;
70369;SDS011;57790;51.356;-2.906;2022-08-20T00:51:23;12.00;;;1.47;;
70369;SDS011;57790;51.356;-2.906;2022-08-20T00:54:43;8.67;;;1.27;;
70369;SDS011;57790;51.356;-2.906;2022-08-20T00:57:46;8.93;;;1.08;;
70369;SDS011;57790;51.356;-2.906;2022-08-20T01:00:52;9.25;;;1.48;;
70369;SDS011;57790;51.356;-2.906;2022-08-20T01:03:53;10.80;;;1.20;;
70369;SDS011;57790;51.356;-2.906;2022-08-20T01:06:55;12.70;;;1.30;;
70369;SDS011;57790;51.356;-2.906;2022-08-20T01:09:56;11.10;;;1.37;;
70369;SDS011;57790;51.356;-2.906;2022-08-20T01:12:57;8.73;;;1.15;;
70369;SDS011;57790;51.356;-2.906;2022-08-20T01:15:58;9.27;;;1.33;;
70369;SDS011;57790;51.356;-2.906;2022-08-20T01:19:02;7.93;;;1.25;;
70369;SDS011;57790;51.356;-2.906;2022-08-20T01:22:04;12.15;;;1.38;;
70369;SDS011;57790;51.356;-2.906;2022-08-20T01:26:13;9.17;;;1.53;;
70369;SDS011;57790;51.356;-2.906;2022-08-20T01:28:56;12.40;;;1.30;;
70369;SDS011;57790;51.356;-2.906;2022-08-20T01:32:00;12.73;;;1.45;;
70369;SDS011;57790;51.356;-2.906;2022-08-20T01:35:01;11.07;;;1.10;;
70369;SDS011;57790;51.356;-2.906;2022-08-20T01:38:03;9.15;;;0.93;;
70369;SDS011;57790;51.356;-2.906;2022-08-20T01:44:26;10.98;;;1.80;;
70369;SDS011;57790;51.356;-2.906;2022-08-20T01:47:29;10.43;;;1.25;;
70369;SDS011;57790;51.356;-2.906;2022-08-20T01:50:31;9.40;;;1.23;;
70369;SDS011;57790;51.356;-2.906;2022-08-20T01:53:36;9.50;;;1.40;;
70369;SDS011;57790;51.356;-2.906;2022-08-20T02:00:14;6.32;;;1.60;;
70369;SDS011;57790;51.356;-2.906;2022-08-20T02:03:16;10.18;;;1.88;;
70369;SDS011;57790;51.356;-2.906;2022-08-20T02:06:17;7.83;;;1.40;;
70369;SDS011;57790;51.356;-2.906;2022-08-20T02:09:18;11.20;;;1.70;;
70369;SDS011;57790;51.356;-2.906;2022-08-20T02:12:18;9.70;;;1.48;;
70369;SDS011;57790;51.356;-2.906;2022-08-20T02:15:19;11.13;;;1.60;;
70369;SDS011;57790;51.356;-2.906;2022-08-20T02:18:19;7.93;;;1.33;;
70369;SDS011;57790;51.356;-2.906;2022-08-20T02:21:25;10.03;;;1.13;;
70369;SDS011;57790;51.356;-2.906;2022-08-20T02:24:27;9.40;;;1.38;;
70369;SDS011;57790;51.356;-2.906;2022-08-20T02:27:29;10.27;;;1.60;;
70369;SDS011;57790;51.356;-2.906;2022-08-20T02:30:32;6.68;;;0.98;;
70369;SDS011;57790;51.356;-2.906;2022-08-20T02:33:34;9.07;;;1.20;;
70369;SDS011;57790;51.356;-2.906;2022-08-20T02:36:35;7.57;;;1.10;;
70369;SDS011;57790;51.356;-2.906;2022-08-20T02:39:36;7.32;;;1.20;;
70369;SDS011;57790;51.356;-2.906;2022-08-20T02:42:36;11.37;;;1.30;;
70369;SDS011;57790;51.356;-2.906;2022-08-20T02:45:38;7.78;;;1.20;;
70369;SDS011;57790;51.356;-2.906;2022-08-20T02:48:42;9.52;;;1.60;;
70369;SDS011;57790;51.356;-2.906;2022-08-20T02:51:43;12.37;;;1.23;;
70369;SDS011;57790;51.356;-2.906;2022-08-20T02:54:45;13.27;;;1.75;;
70369;SDS011;57790;51.356;-2.906;2022-08-20T02:57:46;9.52;;;1.48;;
70369;SDS011;57790;51.356;-2.906;2022-08-20T03:00:46;11.67;;;1.43;;
70369;SDS011;57790;51.356;-2.906;2022-08-20T03:03:48;13.32;;;1.35;;
70369;SDS011;57790;51.356;-2.906;2022-08-20T03:06:48;9.00;;;1.20;;
70369;SDS011;57790;51.356;-2.906;2022-08-20T03:09:48;9.97;;;1.03;;
70369;SDS011;57790;51.356;-2.906;2022-08-20T03:12:49;10.43;;;1.40;;
70369;SDS011;57790;51.356;-2.906;2022-08-20T03:15:54;11.40;;;1.10;;
70369;SDS011;57790;51.356;-2.906;2022-08-20T03:18:56;9.52;;;1.10;;
70369;SDS011;57790;51.356;-2.906;2022-08-20T03:21:57;9.83;;;1.30;;
70369;SDS011;57790;51.356;-2.906;2022-08-20T03:24:57;9.13;;;1.43;;
70369;SDS011;57790;51.356;-2.906;2022-08-20T03:27:58;10.17;;;1.33;;
70369;SDS011;57790;51.356;-2.906;2022-08-20T03:30:58;10.88;;;1.42;;
70369;SDS011;57790;51.356;-2.906;2022-08-20T03:33:59;13.07;;;1.40;;
70369;SDS011;57790;51.356;-2.906;2022-08-20T03:36:59;9.50;;;1.13;;
70369;SDS011;57790;51.356;-2.906;2022-08-20T03:39:59;12.57;;;2.03;;
70369;SDS011;57790;51.356;-2.906;2022-08-20T03:43:03;10.68;;;1.50;;
70369;SDS011;57790;51.356;-2.906;2022-08-20T03:46:05;11.40;;;1.85;;
70369;SDS011;57790;51.356;-2.906;2022-08-20T03:49:05;9.73;;;1.67;;
70369;SDS011;57790;51.356;-2.906;2022-08-20T03:52:06;9.57;;;1.60;;
70369;SDS011;57790;51.356;-2.906;2022-08-20T03:55:07;10.85;;;1.40;;
70369;SDS011;57790;51.356;-2.906;2022-08-20T03:58:08;10.73;;;1.73;;
70369;SDS011;57790;51.356;-2.906;2022-08-20T04:01:09;9.57;;;1.63;;
70369;SDS011;57790;51.356;-2.906;2022-08-20T04:04:09;10.50;;;1.47;;
70369;SDS011;57790;51.356;-2.906;2022-08-20T04:07:11;13.33;;;1.67;;
70369;SDS011;57790;51.356;-2.906;2022-08-20T04:10:14;9.98;;;1.25;;
70369;SDS011;57790;51.356;-2.906;2022-08-20T04:13:15;9.00;;;1.53;;
70369;SDS011;57790;51.356;-2.906;2022-08-20T04:16:17;8.40;;;1.33;;
70369;SDS011;57790;51.356;-2.906;2022-08-20T04:19:17;9.97;;;1.37;;
70369;SDS011;57790;51.356;-2.906;2022-08-20T04:22:18;9.23;;;1.37;;
70369;SDS011;57790;51.356;-2.906;2022-08-20T04:25:18;10.50;;;1.65;;
70369;SDS011;57790;51.356;-2.906;2022-08-20T04:28:21;6.87;;;1.20;;
70369;SDS011;57790;51.356;-2.906;2022-08-20T04:31:25;12.40;;;1.55;;
70369;SDS011;57790;51.356;-2.906;2022-08-20T04:34:32;10.35;;;1.40;;
70369;SDS011;57790;51.356;-2.906;2022-08-20T04:37:33;10.27;;;1.33;;
70369;SDS011;57790;51.356;-2.906;2022-08-20T04:40:34;8.73;;;1.10;;
70369;SDS011;57790;51.356;-2.906;2022-08-20T04:43:53;11.90;;;1.80;;
70369;SDS011;57790;51.356;-2.906;2022-08-20T04:46:55;7.95;;;1.30;;
70369;SDS011;57790;51.356;-2.906;2022-08-20T04:49:56;13.32;;;1.50;;
70369;SDS011;57790;51.356;-2.906;2022-08-20T04:52:59;8.00;;;1.30;;
70369;SDS011;57790;51.356;-2.906;2022-08-20T04:56:00;8.68;;;1.30;;
70369;SDS011;57790;51.356;-2.906;2022-08-20T04:59:01;11.15;;;1.70;;
70369;SDS011;57790;51.356;-2.906;2022-08-20T05:02:01;12.37;;;1.80;;
70369;SDS011;57790;51.356;-2.906;2022-08-20T05:05:03;10.33;;;1.87;;
70369;SDS011;57790;51.356;-2.906;2022-08-20T05:08:04;10.95;;;1.70;;
70369;SDS011;57790;51.356;-2.906;2022-08-20T05:11:05;11.70;;;1.23;;
70369;SDS011;57790;51.356;-2.906;2022-08-20T05:14:08;6.85;;;1.38;;
70369;SDS011;57790;51.356;-2.906;2022-08-20T05:17:08;12.03;;;1.37;;
70369;SDS011;57790;51.356;-2.906;2022-08-20T05:20:10;11.88;;;1.83;;
70369;SDS011;57790;51.356;-2.906;2022-08-20T05:23:13;9.47;;;1.43;;
70369;SDS011;57790;51.356;-2.906;2022-08-20T05:26:15;11.95;;;1.70;;
70369;SDS011;57790;51.356;-2.906;2022-08-20T05:29:18;12.63;;;1.58;;
70369;SDS011;57790;51.356;-2.906;2022-08-20T05:32:20;9.27;;;1.40;;
70369;SDS011;57790;51.356;-2.906;2022-08-20T05:35:21;10.27;;;1.67;;
70369;SDS011;57790;51.356;-2.906;2022-08-20T05:38:26;15.97;;;1.90;;
70369;SDS011;57790;51.356;-2.906;2022-08-20T05:41:28;15.55;;;1.83;;
70369;SDS011;57790;51.356;-2.906;2022-08-20T05:44:28;10.38;;;1.42;;
70369;SDS011;57790;51.356;-2.906;2022-08-20T05:47:30;9.90;;;1.45;;
70369;SDS011;57790;51.356;-2.906;2022-08-20T05:50:31;14.30;;;1.60;;
70369;SDS011;57790;51.356;-2.906;2022-08-20T05:53:32;11.05;;;1.70;;
70369;SDS011;57790;51.356;-2.906;2022-08-20T05:56:33;14.55;;;1.52;;
70369;SDS011;57790;51.356;-2.906;2022-08-20T05:59:34;11.47;;;1.60;;
70369;SDS011;57790;51.356;-2.906;2022-08-20T06:02:36;12.98;;;1.67;;
70369;SDS011;57790;51.356;-2.906;2022-08-20T06:05:55;8.07;;;1.38;;
70369;SDS011;57790;51.356;-2.906;2022-08-20T06:08:56;9.13;;;1.63;;
70369;SDS011;57790;51.356;-2.906;2022-08-20T06:11:56;11.97;;;1.40;;
70369;SDS011;57790;51.356;-2.906;2022-08-20T06:14:58;11.43;;;1.58;;
70369;SDS011;57790;51.356;-2.906;2022-08-20T06:17:58;9.30;;;1.87;;
70369;SDS011;57790;51.356;-2.906;2022-08-20T06:20:59;13.10;;;2.03;;
70369;SDS011;57790;51.356;-2.906;2022-08-20T06:23:59;13.03;;;2.00;;
70369;SDS011;57790;51.356;-2.906;2022-08-20T06:27:00;9.37;;;1.47;;
70369;SDS011;57790;51.356;-2.906;2022-08-20T06:30:03;11.88;;;1.50;;
70369;SDS011;57790;51.356;-2.906;2022-08-20T06:33:04;10.25;;;1.50;;
70369;SDS011;57790;51.356;-2.906;2022-08-20T06:36:04;10.33;;;1.70;;
70369;SDS011;57790;51.356;-2.906;2022-08-20T06:39:06;11.48;;;1.70;;
70369;SDS011;57790;51.356;-2.906;2022-08-20T06:42:06;9.07;;;1.70;;
70369;SDS011;57790;51.356;-2.906;2022-08-20T06:45:06;8.83;;;1.40;;
70369;SDS011;57790;51.356;-2.906;2022-08-20T06:48:10;7.78;;;1.40;;
70369;SDS011;57790;51.356;-2.906;2022-08-20T06:51:16;13.52;;;1.90;;
70369;SDS011;57790;51.356;-2.906;2022-08-20T06:54:16;12.13;;;1.37;;
70369;SDS011;57790;51.356;-2.906;2022-08-20T06:57:16;11.63;;;1.65;;
70369;SDS011;57790;51.356;-2.906;2022-08-20T07:00:18;8.73;;;1.73;;
70369;SDS011;57790;51.356;-2.906;2022-08-20T07:03:19;12.60;;;1.70;;
70369;SDS011;57790;51.356;-2.906;2022-08-20T07:06:20;10.27;;;1.40;;
70369;SDS011;57790;51.356;-2.906;2022-08-20T07:09:20;12.27;;;1.90;;
70369;SDS011;57790;51.356;-2.906;2022-08-20T07:12:31;9.68;;;1.85;;
70369;SDS011;57790;51.356;-2.906;2022-08-20T07:15:33;11.43;;;1.63;;
70369;SDS011;57790;51.356;-2.906;2022-08-20T07:18:34;12.35;;;1.83;;
70369;SDS011;57790;51.356;-2.906;2022-08-20T07:21:35;11.07;;;1.60;;
70369;SDS011;57790;51.356;-2.906;2022-08-20T07:24:36;10.73;;;1.77;;
70369;SDS011;57790;51.356;-2.906;2022-08-20T07:27:37;13.45;;;1.83;;
70369;SDS011;57790;51.356;-2.906;2022-08-20T07:30:38;11.13;;;1.60;;
70369;SDS011;57790;51.356;-2.906;2022-08-20T07:33:57;12.00;;;1.55;;
70369;SDS011;57790;51.356;-2.906;2022-08-20T07:36:58;12.57;;;1.37;;
70369;SDS011;57790;51.356;-2.906;2022-08-20T07:39:59;11.30;;;1.77;;
70369;SDS011;57790;51.356;-2.906;2022-08-20T07:43:00;11.63;;;1.73;;
70369;SDS011;57790;51.356;-2.906;2022-08-20T07:46:02;9.73;;;1.50;;
70369;SDS011;57790;51.356;-2.906;2022-08-20T07:49:07;11.13;;;1.65;;
70369;SDS011;57790;51.356;-2.906;2022-08-20T07:52:08;14.25;;;2.17;;
70369;SDS011;57790;51.356;-2.906;2022-08-20T07:55:10;11.03;;;1.80;;
70369;SDS011;57790;51.356;-2.906;2022-08-20T07:58:14;12.02;;;1.70;;
70369;SDS011;57790;51.356;-2.906;2022-08-20T08:01:21;10.75;;;1.70;;
70369;SDS011;57790;51.356;-2.906;2022-08-20T08:04:24;11.82;;;1.60;;
70369;SDS011;57790;51.356;-2.906;2022-08-20T08:07:25;13.87;;;1.60;;
70369;SDS011;57790;51.356;-2.906;2022-08-20T08:10:25;8.03;;;1.60;;
70369;SDS011;57790;51.356;-2.906;2022-08-20T08:13:27;11.82;;;1.55;;
70369;SDS011;57790;51.356;-2.906;2022-08-20T08:16:35;11.68;;;1.73;;
70369;SDS011;57790;51.356;-2.906;2022-08-20T08:19:38;12.82;;;1.60;;
70369;SDS011;57790;51.356;-2.906;2022-08-20T08:22:43;10.00;;;1.50;;
70369;SDS011;57790;51.356;-2.906;2022-08-20T08:25:43;10.20;;;1.50;;
70369;SDS011;57790;51.356;-2.906;2022-08-20T08:28:45;11.83;;;1.93;;
70369;SDS011;57790;51.356;-2.906;2022-08-20T08:31:45;10.30;;;1.77;;
70369;SDS011;57790;51.356;-2.906;2022-08-20T08:34:46;11.13;;;1.63;;
70369;SDS011;57790;51.356;-2.906;2022-08-20T08:37:47;12.30;;;1.70;;
70369;SDS011;57790;51.356;-2.906;2022-08-20T08:40:51;15.73;;;2.10;;
70369;SDS011;57790;51.356;-2.906;2022-08-20T08:43:55;12.07;;;1.60;;
70369;SDS011;57790;51.356;-2.906;2022-08-20T08:47:07;9.73;;;1.67;;
70369;SDS011;57790;51.356;-2.906;2022-08-20T08:50:22;10.95;;;1.60;;
70369;SDS011;57790;51.356;-2.906;2022-08-20T08:53:30;10.05;;;1.65;;
70369;SDS011;57790;51.356;-2.906;2022-08-20T08:56:33;12.33;;;1.90;;
70369;SDS011;57790;51.356;-2.906;2022-08-20T08:59:34;7.78;;;1.75;;
70369;SDS011;57790;51.356;-2.906;2022-08-20T09:02:34;9.53;;;1.97;;
70369;SDS011;57790;51.356;-2.906;2022-08-20T09:05:39;9.70;;;1.77;;
70369;SDS011;57790;51.356;-2.906;2022-08-20T09:08:55;11.32;;;1.90;;
70369;SDS011;57790;51.356;-2.906;2022-08-20T09:12:10;10.63;;;1.83;;
70369;SDS011;57790;51.356;-2.906;2022-08-20T09:15:18;11.57;;;1.75;;
70369;SDS011;57790;51.356;-2.906;2022-08-20T09:18:20;11.90;;;2.30;;
70369;SDS011;57790;51.356;-2.906;2022-08-20T09:21:20;8.63;;;1.50;;
70369;SDS011;57790;51.356;-2.906;2022-08-20T09:24:21;10.17;;;1.87;;
70369;SDS011;57790;51.356;-2.906;2022-08-20T09:27:21;12.37;;;1.87;;
70369;SDS011;57790;51.356;-2.906;2022-08-20T09:30:21;11.33;;;1.93;;
70369;SDS011;57790;51.356;-2.906;2022-08-20T09:33:22;9.80;;;2.00;;
70369;SDS011;57790;51.356;-2.906;2022-08-20T09:36:22;7.77;;;1.60;;
70369;SDS011;57790;51.356;-2.906;2022-08-20T09:39:22;8.43;;;1.80;;
70369;SDS011;57790;51.356;-2.906;2022-08-20T09:42:24;8.23;;;2.00;;
70369;SDS011;57790;51.356;-2.906;2022-08-20T09:45:27;9.20;;;2.00;;
70369;SDS011;57790;51.356;-2.906;2022-08-20T09:48:28;9.68;;;2.35;;
70369;SDS011;57790;51.356;-2.906;2022-08-20T09:51:28;11.53;;;2.30;;
70369;SDS011;57790;51.356;-2.906;2022-08-20T09:54:29;11.68;;;2.22;;
70369;SDS011;57790;51.356;-2.906;2022-08-20T09:57:32;9.30;;;2.00;;
70369;SDS011;57790;51.356;-2.906;2022-08-20T10:00:33;8.85;;;2.22;;
70369;SDS011;57790;51.356;-2.906;2022-08-20T10:03:34;10.70;;;1.95;;
70369;SDS011;57790;51.356;-2.906;2022-08-20T10:06:37;9.87;;;2.17;;
70369;SDS011;57790;51.356;-2.906;2022-08-20T10:09:39;11.15;;;2.45;;
70369;SDS011;57790;51.356;-2.906;2022-08-20T10:12:39;11.73;;;2.30;;
70369;SDS011;57790;51.356;-2.906;2022-08-20T10:15:44;11.95;;;2.10;;
70369;SDS011;57790;51.356;-2.906;2022-08-20T10:18:45;10.37;;;2.23;;
70369;SDS011;57790;51.356;-2.906;2022-08-20T10:21:51;11.20;;;2.47;;
70369;SDS011;57790;51.356;-2.906;2022-08-20T10:24:52;8.98;;;2.15;;
70369;SDS011;57790;51.356;-2.906;2022-08-20T10:27:52;11.53;;;2.50;;
70369;SDS011;57790;51.356;-2.906;2022-08-20T10:30:52;8.80;;;2.17;;
70369;SDS011;57790;51.356;-2.906;2022-08-20T10:33:53;11.88;;;2.25;;
70369;SDS011;57790;51.356;-2.906;2022-08-20T10:36:53;10.07;;;2.27;;
70369;SDS011;57790;51.356;-2.906;2022-08-20T10:39:54;10.40;;;2.47;;
70369;SDS011;57790;51.356;-2.906;2022-08-20T10:42:55;9.95;;;1.92;;
70369;SDS011;57790;51.356;-2.906;2022-08-20T10:45:55;11.33;;;2.07;;
70369;SDS011;57790;51.356;-2.906;2022-08-20T10:48:56;10.83;;;2.10;;
70369;SDS011;57790;51.356;-2.906;2022-08-20T10:51:56;11.30;;;2.33;;
70369;SDS011;57790;51.356;-2.906;2022-08-20T10:54:57;12.07;;;2.00;;
70369;SDS011;57790;51.356;-2.906;2022-08-20T10:57:57;10.87;;;2.10;;
70369;SDS011;57790;51.356;-2.906;2022-08-20T11:00:57;8.77;;;1.90;;
70369;SDS011;57790;51.356;-2.906;2022-08-20T11:03:58;9.83;;;2.17;;
70369;SDS011;57790;51.356;-2.906;2022-08-20T11:07:08;12.07;;;2.25;;
70369;SDS011;57790;51.356;-2.906;2022-08-20T11:10:17;9.43;;;1.63;;
70369;SDS011;57790;51.356;-2.906;2022-08-20T11:13:17;10.82;;;2.30;;
70369;SDS011;57790;51.356;-2.906;2022-08-20T11:16:18;8.70;;;2.33;;
70369;SDS011;57790;51.356;-2.906;2022-08-20T11:19:18;9.77;;;2.10;;
70369;SDS011;57790;51.356;-2.906;2022-08-20T11:22:18;9.50;;;2.13;;
70369;SDS011;57790;51.356;-2.906;2022-08-20T11:25:19;8.30;;;2.33;;
70369;SDS011;57790;51.356;-2.906;2022-08-20T11:28:20;9.70;;;2.10;;
70369;SDS011;57790;51.356;-2.906;2022-08-20T11:31:21;11.50;;;2.58;;
70369;SDS011;57790;51.356;-2.906;2022-08-20T11:34:21;9.83;;;2.47;;
70369;SDS011;57790;51.356;-2.906;2022-08-20T11:37:22;8.23;;;2.33;;
70369;SDS011;57790;51.356;-2.906;2022-08-20T11:40:24;9.30;;;2.40;;
70369;SDS011;57790;51.356;-2.906;2022-08-20T11:43:25;8.95;;;2.92;;
70369;SDS011;57790;51.356;-2.906;2022-08-20T11:46:25;10.20;;;3.20;;
70369;SDS011;57790;51.356;-2.906;2022-08-20T11:49:26;8.10;;;2.57;;
70369;SDS011;57790;51.356;-2.906;2022-08-20T11:52:26;8.47;;;2.90;;
70369;SDS011;57790;51.356;-2.906;2022-08-20T11:55:28;10.80;;;2.95;;
70369;SDS011;57790;51.356;-2.906;2022-08-20T11:58:28;8.47;;;3.00;;
70369;SDS011;57790;51.356;-2.906;2022-08-20T12:01:29;9.73;;;3.00;;
70369;SDS011;57790;51.356;-2.906;2022-08-20T12:04:30;10.88;;;3.22;;
70369;SDS011;57790;51.356;-2.906;2022-08-20T12:07:30;9.83;;;3.63;;
70369;SDS011;57790;51.356;-2.906;2022-08-20T12:10:31;10.73;;;3.00;;
70369;SDS011;57790;51.356;-2.906;2022-08-20T12:13:32;9.23;;;3.20;;
70369;SDS011;57790;51.356;-2.906;2022-08-20T12:16:36;10.68;;;3.35;;
70369;SDS011;57790;51.356;-2.906;2022-08-20T12:19:40;10.07;;;3.23;;
70369;SDS011;57790;51.356;-2.906;2022-08-20T12:22:41;10.50;;;3.70;;
70369;SDS011;57790;51.356;-2.906;2022-08-20T12:25:43;8.38;;;3.08;;
70369;SDS011;57790;51.356;-2.906;2022-08-20T12:28:44;9.60;;;3.60;;
70369;SDS011;57790;51.356;-2.906;2022-08-20T12:31:44;9.40;;;3.40;;
70369;SDS011;57790;51.356;-2.906;2022-08-20T12:34:50;9.27;;;3.17;;
70369;SDS011;57790;51.356;-2.906;2022-08-20T12:37:51;8.20;;;3.10;;
70369;SDS011;57790;51.356;-2.906;2022-08-20T12:40:52;9.27;;;3.60;;
70369;SDS011;57790;51.356;-2.906;2022-08-20T12:43:52;11.70;;;3.67;;
70369;SDS011;57790;51.356;-2.906;2022-08-20T12:47:03;10.47;;;3.67;;
70369;SDS011;57790;51.356;-2.906;2022-08-20T12:50:11;10.27;;;3.70;;
70369;SDS011;57790;51.356;-2.906;2022-08-20T12:53:17;11.40;;;3.90;;
70369;SDS011;57790;51.356;-2.906;2022-08-20T12:56:17;11.40;;;3.80;;
70369;SDS011;57790;51.356;-2.906;2022-08-20T12:59:18;9.53;;;3.20;;
70369;SDS011;57790;51.356;-2.906;2022-08-20T13:02:22;11.25;;;3.67;;
70369;SDS011;57790;51.356;-2.906;2022-08-20T13:05:22;9.13;;;3.37;;
70369;SDS011;57790;51.356;-2.906;2022-08-20T13:08:23;11.27;;;3.65;;
70369;SDS011;57790;51.356;-2.906;2022-08-20T13:11:24;11.80;;;4.03;;
70369;SDS011;57790;51.356;-2.906;2022-08-20T13:14:24;12.20;;;3.20;;
70369;SDS011;57790;51.356;-2.906;2022-08-20T13:17:25;9.60;;;3.05;;
70369;SDS011;57790;51.356;-2.906;2022-08-20T13:20:26;11.20;;;3.60;;
70369;SDS011;57790;51.356;-2.906;2022-08-20T13:23:27;11.90;;;3.95;;
70369;SDS011;57790;51.356;-2.906;2022-08-20T13:26:27;10.70;;;4.27;;
70369;SDS011;57790;51.356;-2.906;2022-08-20T13:29:28;11.90;;;3.80;;
70369;SDS011;57790;51.356;-2.906;2022-08-20T13:32:28;11.37;;;3.43;;
70369;SDS011;57790;51.356;-2.906;2022-08-20T13:35:28;8.67;;;3.40;;
70369;SDS011;57790;51.356;-2.906;2022-08-20T13:38:29;10.43;;;3.60;;
70369;SDS011;57790;51.356;-2.906;2022-08-20T13:41:30;10.13;;;3.60;;
70369;SDS011;57790;51.356;-2.906;2022-08-20T13:44:30;12.27;;;3.80;;
70369;SDS011;57790;51.356;-2.906;2022-08-20T13:47:32;12.10;;;4.10;;
70369;SDS011;57790;51.356;-2.906;2022-08-20T13:50:34;10.95;;;3.67;;
70369;SDS011;57790;51.356;-2.906;2022-08-20T13:53:35;10.18;;;3.65;;
70369;SDS011;57790;51.356;-2.906;2022-08-20T13:56:35;8.13;;;3.00;;
70369;SDS011;57790;51.356;-2.906;2022-08-20T13:59:39;11.67;;;3.97;;
70369;SDS011;57790;51.356;-2.906;2022-08-20T14:02:41;11.80;;;3.60;;
70369;SDS011;57790;51.356;-2.906;2022-08-20T14:05:41;9.40;;;3.87;;
70369;SDS011;57790;51.356;-2.906;2022-08-20T14:08:42;11.93;;;3.63;;
70369;SDS011;57790;51.356;-2.906;2022-08-20T14:11:42;10.00;;;3.80;;
70369;SDS011;57790;51.356;-2.906;2022-08-20T14:14:43;9.70;;;3.50;;
70369;SDS011;57790;51.356;-2.906;2022-08-20T14:17:50;10.57;;;3.53;;
70369;SDS011;57790;51.356;-2.906;2022-08-20T14:20:52;12.20;;;3.42;;
70369;SDS011;57790;51.356;-2.906;2022-08-20T14:23:53;10.57;;;3.53;;
70369;SDS011;57790;51.356;-2.906;2022-08-20T14:26:53;10.00;;;3.00;;
70369;SDS011;57790;51.356;-2.906;2022-08-20T14:29:53;12.63;;;3.57;;
70369;SDS011;57790;51.356;-2.906;2022-08-20T14:32:54;10.03;;;3.30;;
70369;SDS011;57790;51.356;-2.906;2022-08-20T14:35:55;13.30;;;4.00;;
70369;SDS011;57790;51.356;-2.906;2022-08-20T14:38:55;10.77;;;3.33;;
70369;SDS011;57790;51.356;-2.906;2022-08-20T14:41:56;11.23;;;3.42;;
70369;SDS011;57790;51.356;-2.906;2022-08-20T14:44:56;10.07;;;3.37;;
70369;SDS011;57790;51.356;-2.906;2022-08-20T14:47:58;8.73;;;2.70;;
70369;SDS011;57790;51.356;-2.906;2022-08-20T14:50:58;9.93;;;3.17;;
70369;SDS011;57790;51.356;-2.906;2022-08-20T14:53:59;11.85;;;3.40;;
70369;SDS011;57790;51.356;-2.906;2022-08-20T14:57:00;12.67;;;3.00;;
70369;SDS011;57790;51.356;-2.906;2022-08-20T15:00:00;8.83;;;2.73;;
70369;SDS011;57790;51.356;-2.906;2022-08-20T15:03:01;9.27;;;2.88;;
70369;SDS011;57790;51.356;-2.906;2022-08-20T15:06:02;13.77;;;2.90;;
70369;SDS011;57790;51.356;-2.906;2022-08-20T15:09:02;10.13;;;2.67;;
70369;SDS011;57790;51.356;-2.906;2022-08-20T15:12:03;9.50;;;2.90;;
70369;SDS011;57790;51.356;-2.906;2022-08-20T15:15:04;7.77;;;2.20;;
70369;SDS011;57790;51.356;-2.906;2022-08-20T15:18:07;9.23;;;2.70;;
70369;SDS011;57790;51.356;-2.906;2022-08-20T15:21:07;11.37;;;2.60;;
70369;SDS011;57790;51.356;-2.906;2022-08-20T15:24:08;11.53;;;2.70;;
70369;SDS011;57790;51.356;-2.906;2022-08-20T15:30:15;8.40;;;2.30;;
70369;SDS011;57790;51.356;-2.906;2022-08-20T15:33:17;9.70;;;2.22;;
70369;SDS011;57790;51.356;-2.906;2022-08-20T15:36:18;11.93;;;2.30;;
70369;SDS011;57790;51.356;-2.906;2022-08-20T15:39:18;9.93;;;2.20;;
70369;SDS011;57790;51.356;-2.906;2022-08-20T15:42:19;10.70;;;2.20;;
70369;SDS011;57790;51.356;-2.906;2022-08-20T15:45:21;11.02;;;2.13;;
70369;SDS011;57790;51.356;-2.906;2022-08-20T15:48:27;10.40;;;2.20;;
70369;SDS011;57790;51.356;-2.906;2022-08-20T15:51:32;8.50;;;2.30;;
70369;SDS011;57790;51.356;-2.906;2022-08-20T15:54:37;9.25;;;2.35;;
70369;SDS011;57790;51.356;-2.906;2022-08-20T15:57:42;8.93;;;1.73;;
70369;SDS011;57790;51.356;-2.906;2022-08-20T16:00:57;8.05;;;1.80;;
70369;SDS011;57790;51.356;-2.906;2022-08-20T16:14:27;8.25;;;1.80;;
70369;SDS011;57790;51.356;-2.906;2022-08-20T16:17:40;8.63;;;2.10;;
70369;SDS011;57790;51.356;-2.906;2022-08-20T16:20:45;6.87;;;1.80;;
70369;SDS011;57790;51.356;-2.906;2022-08-20T16:23:49;6.47;;;1.75;;
70369;SDS011;57790;51.356;-2.906;2022-08-20T16:26:56;8.90;;;2.00;;
70369;SDS011;57790;51.356;-2.906;2022-08-20T16:30:08;9.45;;;2.05;;
70369;SDS011;57790;51.356;-2.906;2022-08-20T16:33:35;9.95;;;1.80;;
70369;SDS011;57790;51.356;-2.906;2022-08-20T16:36:42;9.20;;;2.13;;
70369;SDS011;57790;51.356;-2.906;2022-08-20T16:46:52;9.77;;;1.70;;
70369;SDS011;57790;51.356;-2.906;2022-08-20T16:50:05;11.35;;;1.88;;
70369;SDS011;57790;51.356;-2.906;2022-08-20T16:53:15;9.90;;;1.95;;
70369;SDS011;57790;51.356;-2.906;2022-08-20T16:56:31;10.75;;;2.10;;
70369;SDS011;57790;51.356;-2.906;2022-08-20T17:03:06;10.70;;;1.92;;
70369;SDS011;57790;51.356;-2.906;2022-08-20T17:06:14;9.68;;;1.90;;
70369;SDS011;57790;51.356;-2.906;2022-08-20T17:09:37;8.93;;;1.90;;
70369;SDS011;57790;51.356;-2.906;2022-08-20T17:12:42;9.90;;;1.92;;
70369;SDS011;57790;51.356;-2.906;2022-08-20T17:15:50;8.97;;;1.83;;
70369;SDS011;57790;51.356;-2.906;2022-08-20T17:19:18;7.22;;;1.40;;
70369;SDS011;57790;51.356;-2.906;2022-08-20T17:22:27;8.63;;;1.70;;
70369;SDS011;57790;51.356;-2.906;2022-08-20T17:25:30;8.82;;;1.67;;
70369;SDS011;57790;51.356;-2.906;2022-08-20T17:28:34;9.98;;;1.80;;
70369;SDS011;57790;51.356;-2.906;2022-08-20T17:31:39;9.13;;;1.90;;
70369;SDS011;57790;51.356;-2.906;2022-08-20T17:34:47;8.85;;;1.70;;
70369;SDS011;57790;51.356;-2.906;2022-08-20T17:37:50;9.40;;;1.43;;
70369;SDS011;57790;51.356;-2.906;2022-08-20T17:40:52;11.13;;;1.77;;
70369;SDS011;57790;51.356;-2.906;2022-08-20T17:44:01;11.02;;;2.00;;
70369;SDS011;57790;51.356;-2.906;2022-08-20T17:47:04;11.27;;;1.70;;
70369;SDS011;57790;51.356;-2.906;2022-08-20T17:53:19;9.20;;;1.80;;
70369;SDS011;57790;51.356;-2.906;2022-08-20T17:56:26;7.07;;;1.70;;
70369;SDS011;57790;51.356;-2.906;2022-08-20T17:59:38;8.88;;;1.40;;
70369;SDS011;57790;51.356;-2.906;2022-08-20T18:02:46;9.20;;;1.50;;
70369;SDS011;57790;51.356;-2.906;2022-08-20T18:05:53;9.93;;;1.80;;
70369;SDS011;57790;51.356;-2.906;2022-08-20T18:15:37;12.97;;;1.90;;
70369;SDS011;57790;51.356;-2.906;2022-08-20T18:18:50;10.00;;;1.58;;
70369;SDS011;57790;51.356;-2.906;2022-08-20T18:22:04;9.40;;;1.55;;
70369;SDS011;57790;51.356;-2.906;2022-08-20T18:31:54;11.07;;;1.90;;
70369;SDS011;57790;51.356;-2.906;2022-08-20T18:38:09;11.52;;;1.75;;
70369;SDS011;57790;51.356;-2.906;2022-08-20T18:41:24;10.05;;;1.70;;
70369;SDS011;57790;51.356;-2.906;2022-08-20T18:44:52;9.55;;;1.65;;
70369;SDS011;57790;51.356;-2.906;2022-08-20T18:47:53;8.33;;;1.50;;